createdAt,value
2023-03-29T00:01:35.105Z,7.01
2023-03-29T00:04:02.915Z,7.00
2023-03-29T00:06:29.233Z,7.00
2023-03-29T00:08:55.408Z,6.97
2023-03-29T00:11:21.512Z,6.96
2023-03-29T00:13:47.705Z,6.96
2023-03-29T00:16:13.935Z,6.98
2023-03-29T00:18:40.117Z,6.95
2023-03-29T00:21:06.286Z,6.91
2023-03-29T00:23:32.416Z,6.92
2023-03-29T00:25:58.595Z,6.88
2023-03-29T00:28:24.799Z,6.75
2023-03-29T00:30:51.010Z,6.85
2023-03-29T00:33:17.167Z,6.85
2023-03-29T00:35:43.339Z,6.82
2023-03-29T00:38:09.478Z,6.81
2023-03-29T00:40:35.612Z,6.77
2023-03-29T00:43:01.789Z,6.81
2023-03-29T00:45:27.927Z,6.84
2023-03-29T00:47:54.185Z,6.87
2023-03-29T00:50:20.393Z,6.87
2023-03-29T00:52:46.566Z,6.85
2023-03-29T00:55:12.705Z,6.93
2023-03-29T00:57:38.912Z,6.93
2023-03-29T01:00:05.174Z,6.94
2023-03-29T01:02:31.464Z,6.92
2023-03-29T01:04:57.725Z,6.94
2023-03-29T01:07:23.952Z,6.89
2023-03-29T01:09:50.159Z,6.91
2023-03-29T01:12:16.282Z,6.87
2023-03-29T01:14:42.471Z,6.92
2023-03-29T01:17:08.650Z,6.89
2023-03-29T01:19:34.804Z,6.90
2023-03-29T01:22:00.940Z,6.86
2023-03-29T01:24:27.094Z,6.88
2023-03-29T01:26:53.264Z,6.98
2023-03-29T01:29:19.424Z,6.96
2023-03-29T01:31:45.639Z,6.93
2023-03-29T01:34:11.969Z,6.95
2023-03-29T01:36:38.143Z,6.94
2023-03-29T01:39:04.362Z,6.95
2023-03-29T01:41:30.515Z,6.93
2023-03-29T01:43:56.658Z,6.99
2023-03-29T01:46:22.806Z,6.99
2023-03-29T01:48:48.984Z,6.98
2023-03-29T01:51:15.158Z,6.99
2023-03-29T01:53:41.335Z,6.94
2023-03-29T01:56:07.515Z,6.96
2023-03-29T01:58:33.649Z,6.89
2023-03-29T02:01:00.129Z,6.89
2023-03-29T02:03:26.575Z,6.87
2023-03-29T02:05:52.852Z,6.87
2023-03-29T02:08:19.019Z,6.89
2023-03-29T02:10:45.190Z,6.96
2023-03-29T02:13:11.353Z,6.97
2023-03-29T02:15:37.481Z,6.94
2023-03-29T02:18:03.718Z,6.93
2023-03-29T02:20:29.910Z,6.96
2023-03-29T02:22:56.047Z,6.94
2023-03-29T02:25:22.177Z,6.99
2023-03-29T02:27:48.384Z,6.99
2023-03-29T02:30:14.514Z,7.05
2023-03-29T02:32:40.675Z,7.02
2023-03-29T02:35:06.865Z,7.05
2023-03-29T02:37:33.031Z,7.03
2023-03-29T02:39:59.196Z,7.00
2023-03-29T02:42:25.351Z,7.05
2023-03-29T02:44:51.485Z,7.08
2023-03-29T02:47:17.710Z,7.17
2023-03-29T02:49:43.901Z,7.08
2023-03-29T02:52:10.072Z,7.08
2023-03-29T02:54:36.278Z,7.13
2023-03-29T02:57:02.485Z,7.14
2023-03-29T02:59:28.652Z,7.01
2023-03-29T03:01:54.847Z,7.10
2023-03-29T03:04:21.019Z,7.12
2023-03-29T03:06:47.150Z,7.15
2023-03-29T03:09:13.302Z,7.22
2023-03-29T03:11:39.468Z,7.22
2023-03-29T03:14:05.640Z,7.24
2023-03-29T03:16:31.869Z,7.23
2023-03-29T03:18:58.038Z,7.30
2023-03-29T03:21:24.206Z,7.30
2023-03-29T03:23:50.415Z,7.34
2023-03-29T03:26:16.611Z,7.34
2023-03-29T03:28:42.776Z,7.37
2023-03-29T03:31:08.955Z,7.32
2023-03-29T03:33:35.149Z,7.34
2023-03-29T03:36:01.296Z,7.26
2023-03-29T03:38:27.447Z,7.25
2023-03-29T03:40:53.583Z,7.27
2023-03-29T03:43:19.723Z,7.29
2023-03-29T03:45:45.907Z,7.25
2023-03-29T03:48:12.149Z,7.17
2023-03-29T03:50:38.342Z,7.14
2023-03-29T03:53:04.477Z,7.20
2023-03-29T03:55:30.645Z,7.15
2023-03-29T03:57:56.811Z,7.06
2023-03-29T04:00:22.969Z,7.09
2023-03-29T04:02:49.262Z,7.09
2023-03-29T04:05:15.521Z,7.02
2023-03-29T04:07:41.659Z,7.03
2023-03-29T04:10:07.842Z,6.97
2023-03-29T04:12:33.959Z,6.99
2023-03-29T04:15:00.196Z,7.15
2023-03-29T04:17:26.385Z,7.06
2023-03-29T04:19:52.595Z,7.08
2023-03-29T04:22:18.769Z,7.11
2023-03-29T04:24:44.934Z,7.08
2023-03-29T04:27:11.084Z,6.98
2023-03-29T04:29:37.243Z,6.97
2023-03-29T04:32:03.378Z,6.94
2023-03-29T04:34:29.534Z,6.90
2023-03-29T04:36:55.736Z,6.84
2023-03-29T04:39:21.880Z,6.90
2023-03-29T04:41:48.010Z,6.87
2023-03-29T04:44:14.286Z,6.93
2023-03-29T04:46:40.557Z,6.86
2023-03-29T04:49:06.804Z,6.89
2023-03-29T04:51:32.962Z,6.98
2023-03-29T04:53:59.088Z,6.96
2023-03-29T04:56:25.507Z,6.99
2023-03-29T04:58:51.692Z,7.01
2023-03-29T05:01:17.849Z,7.02
2023-03-29T05:03:44.075Z,7.02
2023-03-29T05:06:10.222Z,7.01
2023-03-29T05:08:36.439Z,6.99
2023-03-29T05:11:02.728Z,7.03
2023-03-29T05:13:29.034Z,7.01
2023-03-29T05:15:55.266Z,7.00
2023-03-29T05:18:21.460Z,6.98
2023-03-29T05:20:47.630Z,7.08
2023-03-29T05:23:13.805Z,7.16
2023-03-29T05:25:40.273Z,7.16
2023-03-29T05:28:06.421Z,7.14
2023-03-29T05:30:32.614Z,7.22
2023-03-29T05:32:58.829Z,7.23
2023-03-29T05:35:25.060Z,7.24
2023-03-29T05:37:51.281Z,7.24
2023-03-29T05:40:17.455Z,7.29
2023-03-29T05:42:43.648Z,7.30
2023-03-29T05:45:09.845Z,7.37
2023-03-29T05:47:36.118Z,7.29
2023-03-29T05:50:02.363Z,7.37
2023-03-29T05:52:28.691Z,7.37
2023-03-29T05:54:54.843Z,7.44
2023-03-29T05:57:21.011Z,7.46
2023-03-29T05:59:47.194Z,7.54
2023-03-29T06:02:13.364Z,7.56
2023-03-29T06:04:39.597Z,7.66
2023-03-29T06:07:05.775Z,7.70
2023-03-29T06:09:31.992Z,7.78
2023-03-29T06:11:58.196Z,7.72
2023-03-29T06:14:24.382Z,7.81
2023-03-29T06:16:50.625Z,7.80
2023-03-29T06:19:16.808Z,7.86
2023-03-29T06:21:43.022Z,7.91
2023-03-29T06:24:09.181Z,7.94
2023-03-29T06:26:35.361Z,8.00
2023-03-29T06:29:01.583Z,8.27
2023-03-29T06:31:27.887Z,8.42
2023-03-29T06:33:54.098Z,8.62
2023-03-29T06:36:20.312Z,8.57
2023-03-29T06:38:46.500Z,8.71
2023-03-29T06:41:12.640Z,8.80
2023-03-29T06:43:38.785Z,8.86
2023-03-29T06:46:05.036Z,8.95
2023-03-29T06:48:31.254Z,8.97
2023-03-29T06:50:57.451Z,9.02
2023-03-29T06:53:23.644Z,9.12
2023-03-29T06:55:49.837Z,9.29
2023-03-29T06:58:15.968Z,9.38
2023-03-29T07:00:42.132Z,9.46
2023-03-29T07:03:08.394Z,9.50
2023-03-29T07:05:34.634Z,9.40
2023-03-29T07:08:00.923Z,9.44
2023-03-29T07:10:27.061Z,9.50
2023-03-29T07:12:53.266Z,9.60
2023-03-29T07:15:19.416Z,9.70
2023-03-29T07:17:45.623Z,9.65
2023-03-29T07:20:11.834Z,9.80
2023-03-29T07:22:38.011Z,9.78
2023-03-29T07:25:04.194Z,9.77
2023-03-29T07:27:30.409Z,9.85
2023-03-29T07:29:56.645Z,9.76
2023-03-29T07:32:22.854Z,9.73
2023-03-29T07:34:49.025Z,9.82
2023-03-29T07:37:15.195Z,9.83
2023-03-29T07:39:41.376Z,9.76
2023-03-29T07:42:07.524Z,9.74
2023-03-29T07:44:33.695Z,9.89
2023-03-29T07:46:59.850Z,9.88
2023-03-29T07:49:26.005Z,9.85
2023-03-29T07:51:52.180Z,9.86
2023-03-29T07:54:18.362Z,9.86
2023-03-29T07:56:44.544Z,9.80
2023-03-29T07:59:10.697Z,9.88
2023-03-29T08:01:36.925Z,9.80
2023-03-29T08:04:03.229Z,9.74
2023-03-29T08:06:29.423Z,9.73
2023-03-29T08:08:55.579Z,9.78
2023-03-29T08:11:21.702Z,9.86
2023-03-29T08:13:47.850Z,9.84
2023-03-29T08:16:13.997Z,9.86
2023-03-29T08:18:40.267Z,9.67
2023-03-29T08:21:06.408Z,9.83
2023-03-29T08:23:32.574Z,9.75
2023-03-29T08:25:58.768Z,9.96
2023-03-29T08:28:24.902Z,10.08
2023-03-29T08:30:51.172Z,10.14
2023-03-29T08:33:17.433Z,10.09
2023-03-29T08:35:43.798Z,10.08
2023-03-29T08:38:10.061Z,10.05
2023-03-29T08:40:36.259Z,10.09
2023-03-29T08:43:02.422Z,10.17
2023-03-29T08:45:28.546Z,10.18
2023-03-29T08:47:54.789Z,10.30
2023-03-29T08:50:20.972Z,10.36
2023-03-29T08:52:47.163Z,10.36
2023-03-29T08:55:13.315Z,10.39
2023-03-29T08:57:39.571Z,10.42
2023-03-29T09:00:05.759Z,10.40
2023-03-29T09:02:32.034Z,10.35
2023-03-29T09:04:58.280Z,10.35
2023-03-29T09:07:26.542Z,10.37
2023-03-29T09:09:52.849Z,10.39
2023-03-29T09:12:19.009Z,10.52
2023-03-29T09:14:45.213Z,10.62
2023-03-29T09:17:11.417Z,10.88
2023-03-29T09:19:37.621Z,11.11
2023-03-29T09:22:03.808Z,11.46
2023-03-29T09:24:29.985Z,11.73
2023-03-29T09:26:56.169Z,12.07
2023-03-29T09:29:22.332Z,12.51
2023-03-29T09:31:48.552Z,12.96
2023-03-29T09:34:15.860Z,13.99
2023-03-29T09:36:42.372Z,14.66
2023-03-29T09:39:08.522Z,15.34
2023-03-29T09:41:34.662Z,15.67
2023-03-29T09:44:00.840Z,15.71
2023-03-29T09:46:26.973Z,15.46
2023-03-29T09:48:53.185Z,14.97
2023-03-29T09:51:19.376Z,14.90
2023-03-29T09:53:45.506Z,14.79
2023-03-29T09:56:11.712Z,14.91
2023-03-29T09:58:37.874Z,14.70
2023-03-29T10:01:04.194Z,14.39
2023-03-29T10:03:30.490Z,14.16
2023-03-29T10:05:56.682Z,14.28
2023-03-29T10:08:22.840Z,14.34
2023-03-29T10:10:49.053Z,14.44
2023-03-29T10:13:15.189Z,14.38
2023-03-29T10:15:41.361Z,14.49
2023-03-29T10:18:07.620Z,14.49
2023-03-29T10:20:33.884Z,14.59
2023-03-29T10:23:00.070Z,14.44
2023-03-29T10:25:26.257Z,14.36
2023-03-29T10:27:52.478Z,14.51
2023-03-29T10:30:18.649Z,14.53
2023-03-29T10:32:44.827Z,14.95
2023-03-29T10:35:11.029Z,14.96
2023-03-29T10:37:37.155Z,15.24
2023-03-29T10:40:03.279Z,15.43
2023-03-29T10:42:29.429Z,15.63
2023-03-29T10:44:55.634Z,16.01
2023-03-29T10:47:21.766Z,16.08
2023-03-29T10:49:48.178Z,17.29
2023-03-29T10:52:14.423Z,18.20
2023-03-29T10:54:40.645Z,18.27
2023-03-29T10:57:06.873Z,17.41
2023-03-29T10:59:33.014Z,17.53
2023-03-29T11:02:00.362Z,18.77
2023-03-29T11:04:26.643Z,19.20
2023-03-29T11:06:52.855Z,19.32
2023-03-29T11:09:22.642Z,18.96
2023-03-29T11:11:48.827Z,18.27
2023-03-29T11:14:14.949Z,18.24
2023-03-29T11:16:41.100Z,17.85
2023-03-29T11:19:13.196Z,18.28
2023-03-29T11:21:39.402Z,18.99
2023-03-29T11:24:05.539Z,19.36
2023-03-29T11:26:31.691Z,20.69
2023-03-29T11:28:57.886Z,21.46
2023-03-29T11:31:24.093Z,21.69
2023-03-29T11:33:50.240Z,22.05
2023-03-29T11:36:16.453Z,20.89
2023-03-29T11:38:45.105Z,20.83
2023-03-29T11:41:11.528Z,21.34
2023-03-29T11:43:37.752Z,21.22
2023-03-29T11:46:04.018Z,21.54
2023-03-29T11:48:30.298Z,21.15
2023-03-29T11:50:56.476Z,21.03
2023-03-29T11:53:22.690Z,21.52
2023-03-29T11:55:48.861Z,20.76
2023-03-29T11:58:15.052Z,19.85
2023-03-29T12:00:41.290Z,19.72
2023-03-29T12:03:07.556Z,19.62
2023-03-29T12:05:33.826Z,19.37
2023-03-29T12:08:00.048Z,19.06
2023-03-29T12:10:26.239Z,18.75
2023-03-29T12:12:52.417Z,18.51
2023-03-29T12:15:18.647Z,18.60
2023-03-29T12:17:44.917Z,18.81
2023-03-29T12:20:11.105Z,18.99
2023-03-29T12:22:37.248Z,20.17
2023-03-29T12:25:03.425Z,20.84
2023-03-29T12:27:29.596Z,21.40
2023-03-29T12:29:55.782Z,21.39
2023-03-29T12:32:22.151Z,21.21
2023-03-29T12:34:48.449Z,20.72
2023-03-29T12:37:14.672Z,20.38
2023-03-29T12:39:40.811Z,20.39
2023-03-29T12:42:07.034Z,22.00
2023-03-29T12:44:33.179Z,22.16
2023-03-29T12:46:59.352Z,22.23
2023-03-29T12:49:25.530Z,22.67
2023-03-29T12:51:51.657Z,22.27
2023-03-29T12:54:17.862Z,22.73
2023-03-29T12:56:44.101Z,23.28
2023-03-29T12:59:10.285Z,22.56
2023-03-29T13:01:36.570Z,20.76
2023-03-29T13:04:02.852Z,20.42
2023-03-29T13:06:29.012Z,20.36
2023-03-29T13:08:55.140Z,19.72
2023-03-29T13:11:21.424Z,19.22
2023-03-29T13:13:47.706Z,19.04
2023-03-29T13:16:13.939Z,18.83
2023-03-29T13:18:40.214Z,18.98
2023-03-29T13:21:06.408Z,18.95
2023-03-29T13:23:32.582Z,18.82
2023-03-29T13:25:58.775Z,18.66
2023-03-29T13:28:24.955Z,19.13
2023-03-29T13:30:51.097Z,20.08
2023-03-29T13:33:17.253Z,20.52
2023-03-29T13:35:43.459Z,20.25
2023-03-29T13:38:09.657Z,21.09
2023-03-29T13:40:35.874Z,21.30
2023-03-29T13:43:02.025Z,21.70
2023-03-29T13:45:28.198Z,21.56
2023-03-29T13:48:04.715Z,20.77
2023-03-29T13:50:31.844Z,20.17
2023-03-29T13:52:58.028Z,18.92
2023-03-29T13:55:24.214Z,18.63
2023-03-29T13:57:50.377Z,18.92
2023-03-29T14:00:16.586Z,19.17
2023-03-29T14:02:42.959Z,19.43
2023-03-29T14:05:09.242Z,19.27
2023-03-29T14:07:35.494Z,18.75
2023-03-29T14:10:01.708Z,19.12
2023-03-29T14:12:27.912Z,19.55
2023-03-29T14:14:59.301Z,19.63
2023-03-29T14:17:25.830Z,18.76
2023-03-29T14:19:52.022Z,18.58
2023-03-29T14:22:18.187Z,18.12
2023-03-29T14:24:44.311Z,17.76
2023-03-29T14:27:10.491Z,17.74
2023-03-29T14:29:38.942Z,17.51
2023-03-29T14:32:05.099Z,17.45
2023-03-29T14:34:31.285Z,17.53
2023-03-29T14:36:57.548Z,17.83
2023-03-29T14:39:23.762Z,17.79
2023-03-29T14:41:49.905Z,17.88
2023-03-29T14:44:16.084Z,18.03
2023-03-29T14:46:42.316Z,17.88
2023-03-29T14:49:08.546Z,18.06
2023-03-29T14:51:34.876Z,18.00
2023-03-29T14:54:01.070Z,17.83
2023-03-29T14:56:27.235Z,17.68
2023-03-29T14:58:53.395Z,17.55
2023-03-29T15:01:19.642Z,17.22
2023-03-29T15:03:45.865Z,17.38
2023-03-29T15:06:12.055Z,17.47
2023-03-29T15:08:38.241Z,17.43
2023-03-29T15:11:04.429Z,17.59
2023-03-29T15:13:30.591Z,17.36
2023-03-29T15:15:56.784Z,17.29
2023-03-29T15:18:22.980Z,17.35
2023-03-29T15:20:49.236Z,17.25
2023-03-29T15:23:15.420Z,17.30
2023-03-29T15:25:41.608Z,17.12
2023-03-29T15:28:07.761Z,17.27
2023-03-29T15:30:33.966Z,17.27
2023-03-29T15:33:00.254Z,17.33
2023-03-29T15:35:26.497Z,17.29
2023-03-29T15:37:52.651Z,17.18
2023-03-29T15:40:18.852Z,17.22
2023-03-29T15:42:45.067Z,17.38
2023-03-29T15:45:11.204Z,17.40
2023-03-29T15:47:37.386Z,17.35
2023-03-29T15:50:03.580Z,17.18
2023-03-29T15:52:29.736Z,17.32
2023-03-29T15:54:55.892Z,17.25
2023-03-29T15:57:22.109Z,17.20
2023-03-29T15:59:48.383Z,16.89
2023-03-29T16:02:14.565Z,16.94
2023-03-29T16:04:40.739Z,16.81
2023-03-29T16:07:06.885Z,16.65
2023-03-29T16:09:33.052Z,16.65
2023-03-29T16:11:59.214Z,16.55
2023-03-29T16:14:25.475Z,16.36
2023-03-29T16:16:51.831Z,16.37
2023-03-29T16:19:18.498Z,16.28
2023-03-29T16:21:44.680Z,16.26
2023-03-29T16:24:10.840Z,16.24
2023-03-29T16:26:37.035Z,16.30
2023-03-29T16:29:03.204Z,16.18
2023-03-29T16:31:29.350Z,16.26
2023-03-29T16:33:55.564Z,16.14
2023-03-29T16:36:21.779Z,16.00
2023-03-29T16:38:47.974Z,16.02
2023-03-29T16:41:14.142Z,15.87
2023-03-29T16:43:40.299Z,15.81
2023-03-29T16:46:06.782Z,15.70
2023-03-29T16:48:33.235Z,15.59
2023-03-29T16:50:59.345Z,15.61
2023-03-29T16:53:25.500Z,15.47
2023-03-29T16:55:51.673Z,15.42
2023-03-29T16:58:17.821Z,15.36
2023-03-29T17:00:46.394Z,15.31
2023-03-29T17:03:14.265Z,15.23
2023-03-29T17:05:40.479Z,15.19
2023-03-29T17:08:06.684Z,15.13
2023-03-29T17:10:32.827Z,15.11
2023-03-29T17:12:59.005Z,15.06
2023-03-29T17:15:25.146Z,14.98
2023-03-29T17:17:51.503Z,14.94
2023-03-29T17:20:17.729Z,14.94
2023-03-29T17:22:43.920Z,14.86
2023-03-29T17:25:10.077Z,14.86
2023-03-29T17:27:36.235Z,14.86
2023-03-29T17:30:02.393Z,14.84
2023-03-29T17:32:28.622Z,14.72
2023-03-29T17:34:54.813Z,14.67
2023-03-29T17:37:20.935Z,14.65
2023-03-29T17:39:47.151Z,14.61
2023-03-29T17:42:13.282Z,14.70
2023-03-29T17:44:39.428Z,14.69
2023-03-29T17:47:05.796Z,14.57
2023-03-29T17:49:33.514Z,14.64
2023-03-29T17:51:59.732Z,14.54
2023-03-29T17:54:25.939Z,14.48
2023-03-29T17:56:52.115Z,14.51
2023-03-29T17:59:18.330Z,14.48
2023-03-29T18:01:44.605Z,14.37
2023-03-29T18:04:10.791Z,14.41
2023-03-29T18:06:36.918Z,14.38
2023-03-29T18:09:03.152Z,14.37
2023-03-29T18:11:29.318Z,14.34
2023-03-29T18:13:55.506Z,14.28
2023-03-29T18:16:21.774Z,14.25
2023-03-29T18:18:48.350Z,14.19
2023-03-29T18:21:14.490Z,14.13
2023-03-29T18:23:40.685Z,14.05
2023-03-29T18:26:06.847Z,14.13
2023-03-29T18:28:32.974Z,14.10
2023-03-29T18:30:59.132Z,14.07
2023-03-29T18:33:25.339Z,14.05
2023-03-29T18:35:51.754Z,14.03
2023-03-29T18:38:18.048Z,14.02
2023-03-29T18:40:44.257Z,13.99
2023-03-29T18:43:10.447Z,13.88
2023-03-29T18:45:36.684Z,13.81
2023-03-29T18:48:02.957Z,13.78
2023-03-29T18:50:29.123Z,13.72
2023-03-29T18:52:55.236Z,13.75
2023-03-29T18:55:21.368Z,13.71
2023-03-29T18:57:47.547Z,13.77
2023-03-29T19:00:13.954Z,13.82
2023-03-29T19:02:40.307Z,13.75
2023-03-29T19:05:06.563Z,13.80
2023-03-29T19:07:32.738Z,13.89
2023-03-29T19:09:58.945Z,13.94
2023-03-29T19:12:25.099Z,14.01
2023-03-29T19:14:51.295Z,14.06
2023-03-29T19:17:17.555Z,14.18
2023-03-29T19:19:43.761Z,14.16
2023-03-29T19:22:09.946Z,14.24
2023-03-29T19:24:36.184Z,14.35
2023-03-29T19:27:02.371Z,14.37
2023-03-29T19:29:28.534Z,14.36
2023-03-29T19:31:54.815Z,14.37
2023-03-29T19:34:21.054Z,14.30
2023-03-29T19:36:47.184Z,14.21
2023-03-29T19:39:13.384Z,14.09
2023-03-29T19:41:41.398Z,13.94
2023-03-29T19:44:08.125Z,13.87
2023-03-29T19:46:34.304Z,13.83
2023-03-29T19:49:00.486Z,13.85
2023-03-29T19:51:26.655Z,13.78
2023-03-29T19:53:52.778Z,13.67
2023-03-29T19:56:18.897Z,13.68
2023-03-29T19:58:45.094Z,13.60
2023-03-29T20:01:11.300Z,13.59
2023-03-29T20:03:37.485Z,13.65
2023-03-29T20:06:03.856Z,13.77
2023-03-29T20:08:30.057Z,13.81
2023-03-29T20:10:56.236Z,13.86
2023-03-29T20:13:35.420Z,13.94
2023-03-29T20:16:04.722Z,13.96
2023-03-29T20:18:30.976Z,14.01
2023-03-29T20:20:57.204Z,14.14
2023-03-29T20:23:23.396Z,14.14
2023-03-29T20:25:49.580Z,14.17
2023-03-29T20:28:15.724Z,14.09
2023-03-29T20:30:41.899Z,14.04
2023-03-29T20:33:08.141Z,14.12
2023-03-29T20:35:34.440Z,14.01
2023-03-29T20:38:00.624Z,13.87
2023-03-29T20:40:26.830Z,13.83
2023-03-29T20:42:52.994Z,13.75
2023-03-29T20:45:19.208Z,13.70
2023-03-29T20:47:45.453Z,13.73
2023-03-29T20:50:11.674Z,13.74
2023-03-29T20:52:37.883Z,13.72
2023-03-29T20:55:04.046Z,13.53
2023-03-29T20:57:30.663Z,13.59
2023-03-29T20:59:56.875Z,13.61
2023-03-29T21:02:23.081Z,13.64
2023-03-29T21:04:49.297Z,13.60
2023-03-29T21:07:15.457Z,13.55
2023-03-29T21:09:41.598Z,13.53
2023-03-29T21:12:07.754Z,13.65
2023-03-29T21:14:33.898Z,13.67
2023-03-29T21:17:00.050Z,13.66
2023-03-29T21:19:26.231Z,13.64
2023-03-29T21:21:52.398Z,13.58
2023-03-29T21:24:18.605Z,13.52
2023-03-29T21:26:45.015Z,13.47
2023-03-29T21:29:11.226Z,13.48
2023-03-29T21:31:37.617Z,13.55
2023-03-29T21:34:03.826Z,13.55
2023-03-29T21:36:30.002Z,13.53
2023-03-29T21:38:56.472Z,13.50
2023-03-29T21:41:22.649Z,13.52
2023-03-29T21:43:48.828Z,13.39
2023-03-29T21:46:17.165Z,13.40
2023-03-29T21:48:43.447Z,13.30
2023-03-29T21:51:09.657Z,13.28
2023-03-29T21:53:35.935Z,13.17
2023-03-29T21:56:02.107Z,13.05
2023-03-29T21:58:28.334Z,12.97
2023-03-29T22:00:54.550Z,12.87
2023-03-29T22:03:20.883Z,12.85
2023-03-29T22:05:47.109Z,12.81
2023-03-29T22:08:13.326Z,12.86
2023-03-29T22:10:39.552Z,12.90
2023-03-29T22:13:05.734Z,12.96
2023-03-29T22:15:31.905Z,12.98
2023-03-29T22:17:59.714Z,12.95
2023-03-29T22:20:26.194Z,12.97
2023-03-29T22:22:52.395Z,12.93
2023-03-29T22:25:18.625Z,12.93
2023-03-29T22:27:44.781Z,12.95
2023-03-29T22:30:13.921Z,12.92
2023-03-29T22:35:43.828Z,12.92
2023-03-29T22:38:16.168Z,12.89
2023-03-29T22:40:54.055Z,12.86
2023-03-29T22:43:27.572Z,12.86
2023-03-29T22:48:39.571Z,13.05
2023-03-29T22:51:14.798Z,13.07
2023-03-29T22:53:51.695Z,13.22
2023-03-29T22:56:20.279Z,13.17
2023-03-29T23:07:08.459Z,13.34
2023-03-29T23:10:25.994Z,13.46
2023-03-29T23:18:11.623Z,13.69
2023-03-29T23:20:51.570Z,13.79
2023-03-29T23:23:25.974Z,13.87
2023-03-29T23:25:57.999Z,13.91
2023-03-29T23:28:28.956Z,13.96
2023-03-29T23:30:56.351Z,13.87
2023-03-29T23:33:29.197Z,13.96
2023-03-29T23:35:56.664Z,13.93
2023-03-29T23:38:56.071Z,13.90
2023-03-29T23:41:25.893Z,13.88
2023-03-29T23:44:13.964Z,13.61
2023-03-29T23:46:43.220Z,13.47
2023-03-29T23:49:19.548Z,13.32
2023-03-29T23:54:35.863Z,13.37
2023-03-29T23:57:23.610Z,13.48
2023-03-29T23:59:56.670Z,13.58
